Time;durP1;ratioP1;P1;durP2;ratioP2;P2;SDS_P1;SDS_P2;PMS_P1;PMS_P2;Temp;Humidity;BMP_temperature;BMP_pressure;BME280_temperature;BME280_humidity;BME280_pressure;Samples;Min_cycle;Max_cycle;Signal;HPM_P1;HPM_P2
2021/11/11 00:01:06;;;;;;;16.50;9.63;;;;;;;-1.27;100.00;99352.56;4158290;28;20037;-71
2021/11/11 00:03:07;;;;;;;16.92;10.50;;;;;;;-1.23;100.00;99350.94;4156901;28;20045;-71
2021/11/11 00:05:09;;;;;;;17.33;9.70;;;;;;;-1.12;100.00;99357.09;4156704;28;20068;-71
2021/11/11 00:07:11;;;;;;;15.60;9.52;;;;;;;-1.15;100.00;99358.50;4160862;28;20441;-71
2021/11/11 00:09:11;;;;;;;17.75;10.75;;;;;;;-1.13;100.00;99361.72;4158404;28;20054;-72
2021/11/11 00:11:11;;;;;;;21.02;9.40;;;;;;;-1.18;100.00;99355.50;4159073;28;20099;-71
2021/11/11 00:13:12;;;;;;;18.20;10.10;;;;;;;-1.20;100.00;99360.41;4156722;28;20073;-71
2021/11/11 00:15:14;;;;;;;15.52;9.07;;;;;;;-1.30;100.00;99358.56;4157315;28;20052;-71
2021/11/11 00:17:14;;;;;;;16.50;8.27;;;;;;;-1.38;100.00;99359.13;4163953;28;20394;-72
2021/11/11 00:19:15;;;;;;;12.90;7.97;;;;;;;-1.44;100.00;99360.25;4157403;28;20265;-72
2021/11/11 00:21:15;;;;;;;16.10;9.77;;;;;;;-1.52;100.00;99348.06;4156597;28;20065;-72
2021/11/11 00:23:15;;;;;;;15.45;8.45;;;;;;;-1.56;100.00;99349.72;4157656;28;20077;-71
2021/11/11 00:25:18;;;;;;;15.85;9.95;;;;;;;-1.56;100.00;99344.28;4157551;28;20053;-71
2021/11/11 00:27:18;;;;;;;15.80;9.07;;;;;;;-1.58;100.00;99343.72;4155989;28;20069;-71
2021/11/11 00:29:18;;;;;;;16.80;9.73;;;;;;;-1.51;100.00;99340.72;4156205;28;20053;-71
2021/11/11 00:31:19;;;;;;;16.52;9.52;;;;;;;-1.44;100.00;99338.53;4157721;28;20091;-71
2021/11/11 00:33:19;;;;;;;19.38;9.00;;;;;;;-1.38;100.00;99336.63;4158110;28;20126;-71
2021/11/11 00:35:23;;;;;;;14.18;8.57;;;;;;;-1.38;100.00;99342.03;4156497;28;20371;-71
2021/11/11 00:37:23;;;;;;;17.65;10.02;;;;;;;-1.44;100.00;99338.53;4158768;28;20312;-71
2021/11/11 00:39:23;;;;;;;15.60;9.98;;;;;;;-1.41;100.00;99346.09;4158605;28;20043;-71
2021/11/11 00:41:24;;;;;;;19.42;9.27;;;;;;;-1.40;100.00;99342.31;4156665;28;20779;-71
2021/11/11 00:43:25;;;;;;;15.70;8.68;;;;;;;-1.44;100.00;99336.63;4157930;28;20842;-71
2021/11/11 00:45:26;;;;;;;14.80;9.70;;;;;;;-1.46;100.00;99335.28;4158254;28;20049;-71
2021/11/11 00:47:26;;;;;;;17.67;9.70;;;;;;;-1.48;100.00;99326.63;4157468;28;20144;-71
2021/11/11 00:49:27;;;;;;;16.17;9.68;;;;;;;-1.47;100.00;99330.94;4156786;28;20544;-71
2021/11/11 00:51:27;;;;;;;15.82;9.73;;;;;;;-1.49;100.00;99323.09;4156778;28;20045;-71
2021/11/11 00:53:27;;;;;;;18.92;10.07;;;;;;;-1.42;100.00;99333.63;4156116;28;20106;-71
2021/11/11 00:55:29;;;;;;;16.80;10.88;;;;;;;-1.40;100.00;99320.59;4156697;28;20042;-71
2021/11/11 00:57:30;;;;;;;17.37;10.57;;;;;;;-1.35;100.00;99328.72;4157683;28;20064;-71
2021/11/11 00:59:30;;;;;;;16.00;10.35;;;;;;;-1.33;100.00;99331.13;4156804;28;20268;-71
2021/11/11 01:01:31;;;;;;;16.60;10.90;;;;;;;-1.37;100.00;99320.03;4156456;28;20033;-71
2021/11/11 01:03:40;;;;;;;19.45;10.15;;;;;;;-1.35;100.00;99317.03;4155529;28;20485;-71
2021/11/11 01:05:40;;;;;;;16.30;9.05;;;;;;;-1.25;100.00;99301.50;4156879;28;20041;-71
2021/11/11 01:07:41;;;;;;;17.40;9.48;;;;;;;-1.21;100.00;99299.06;4158639;28;20049;-71
2021/11/11 01:09:41;;;;;;;13.45;8.02;;;;;;;-1.29;99.79;99308.59;4158151;28;20473;-71
2021/11/11 01:11:43;;;;;;;16.33;10.15;;;;;;;-1.38;99.90;99312.19;4157700;28;20045;-71
2021/11/11 01:13:43;;;;;;;17.23;9.52;;;;;;;-1.37;100.00;99300.22;4158685;28;20033;-71
2021/11/11 01:15:43;;;;;;;14.40;8.75;;;;;;;-1.37;100.00;99311.91;4157065;28;20037;-71
2021/11/11 01:17:44;;;;;;;16.17;9.65;;;;;;;-1.49;100.00;99309.53;4156041;28;20042;-71
2021/11/11 01:19:45;;;;;;;17.48;9.55;;;;;;;-1.44;100.00;99311.38;4156069;28;20441;-71
2021/11/11 01:21:46;;;;;;;16.50;9.50;;;;;;;-1.45;100.00;99316.00;4155988;28;20050;-71
2021/11/11 01:23:47;;;;;;;17.95;10.13;;;;;;;-1.51;100.00;99313.59;4155793;28;20045;-71
2021/11/11 01:25:47;;;;;;;18.10;9.50;;;;;;;-1.50;100.00;99310.59;4156152;28;20393;-71
2021/11/11 01:27:48;;;;;;;17.95;10.70;;;;;;;-1.53;100.00;99322.00;4156045;28;20446;-71
2021/11/11 01:29:48;;;;;;;19.10;9.30;;;;;;;-1.59;100.00;99303.31;4156668;28;20464;-71
2021/11/11 01:31:49;;;;;;;19.60;10.13;;;;;;;-1.57;100.00;99301.97;4155708;28;20037;-71
2021/11/11 01:33:49;;;;;;;16.05;8.93;;;;;;;-1.63;100.00;99308.50;4160180;28;20037;-71
2021/11/11 01:35:50;;;;;;;21.90;10.45;;;;;;;-1.68;100.00;99303.06;4156005;28;20414;-71
2021/11/11 01:37:50;;;;;;;19.48;10.13;;;;;;;-1.68;100.00;99308.50;4155907;28;20818;-71
2021/11/11 01:39:50;;;;;;;17.67;10.20;;;;;;;-1.77;100.00;99310.97;4155807;28;20154;-71
2021/11/11 01:41:51;;;;;;;18.33;10.50;;;;;;;-1.77;100.00;99308.25;4155559;28;20045;-71
2021/11/11 01:43:52;;;;;;;19.05;9.73;;;;;;;-1.84;100.00;99312.34;4154565;28;20477;-71
2021/11/11 01:45:52;;;;;;;18.00;9.23;;;;;;;-1.95;100.00;99314.28;4157842;28;20575;-71
2021/11/11 01:47:54;;;;;;;15.30;9.02;;;;;;;-2.01;100.00;99318.91;4155644;28;20041;-71
2021/11/11 01:49:54;;;;;;;19.23;10.82;;;;;;;-1.93;100.00;99311.31;4159387;28;20400;-71
2021/11/11 01:51:55;;;;;;;17.65;10.10;;;;;;;-1.96;100.00;99301.00;4159639;28;20044;-71
2021/11/11 01:53:55;;;;;;;14.50;8.55;;;;;;;-2.03;100.00;99293.97;4156671;28;20132;-71
2021/11/11 01:55:55;;;;;;;19.60;10.27;;;;;;;-2.00;100.00;99290.69;4158917;28;20440;-71
2021/11/11 01:57:56;;;;;;;15.60;10.00;;;;;;;-1.91;100.00;99282.81;4157298;28;20076;-71
2021/11/11 01:59:58;;;;;;;17.85;10.90;;;;;;;-1.92;100.00;99285.81;4155376;28;20309;-71
2021/11/11 02:02:00;;;;;;;20.10;9.53;;;;;;;-1.91;100.00;99293.66;4155487;28;20095;-71
2021/11/11 02:04:00;;;;;;;16.77;9.68;;;;;;;-1.96;100.00;99303.72;4154521;28;20160;-71
2021/11/11 02:06:00;;;;;;;18.27;9.68;;;;;;;-2.05;100.00;99308.91;4155154;28;20076;-71
2021/11/11 02:08:01;;;;;;;17.35;10.10;;;;;;;-2.09;100.00;99308.63;4155828;28;20041;-71
2021/11/11 02:10:03;;;;;;;21.42;12.07;;;;;;;-2.15;100.00;99295.34;4155427;28;20033;-71
2021/11/11 02:12:04;;;;;;;17.85;10.82;;;;;;;-2.18;100.00;99304.84;4158122;28;20636;-71
2021/11/11 02:14:04;;;;;;;19.75;10.50;;;;;;;-2.21;100.00;99305.41;4156740;28;20120;-71
2021/11/11 02:16:05;;;;;;;17.45;11.52;;;;;;;-2.27;100.00;99290.22;4155682;28;20533;-71
2021/11/11 02:18:08;;;;;;;19.83;11.10;;;;;;;-2.30;100.00;99290.78;4154945;28;20060;-71
2021/11/11 02:20:13;;;;;;;20.48;11.77;;;;;;;-2.30;100.00;99290.78;4157965;28;20053;-71
2021/11/11 02:22:14;;;;;;;17.48;9.77;;;;;;;-2.35;100.00;99299.72;4155132;28;20039;-70
2021/11/11 02:24:14;;;;;;;19.98;11.40;;;;;;;-2.39;100.00;99292.44;4153912;28;20457;-70
2021/11/11 02:26:14;;;;;;;18.65;10.38;;;;;;;-2.30;100.00;99291.59;4156656;28;20024;-70
2021/11/11 02:28:17;;;;;;;19.80;11.70;;;;;;;-2.18;100.00;99298.63;4155952;28;20037;-71
2021/11/11 02:30:20;;;;;;;22.13;10.77;;;;;;;-2.12;100.00;99300.25;4158356;28;20036;-71
2021/11/11 02:32:28;;;;;;;18.25;10.95;;;;;;;-2.09;100.00;99302.38;4154681;28;20480;-71
2021/11/11 02:34:28;;;;;;;16.20;10.10;;;;;;;-2.03;100.00;99304.00;4156445;28;20041;-70
2021/11/11 02:36:29;;;;;;;19.38;10.93;;;;;;;-2.04;100.00;99303.19;4155266;28;20042;-71
2021/11/11 02:38:29;;;;;;;16.33;10.13;;;;;;;-2.05;100.00;99304.28;4154927;28;20041;-71
2021/11/11 02:40:31;;;;;;;17.58;9.93;;;;;;;-1.99;100.00;99310.50;4154446;28;20060;-71
2021/11/11 02:42:31;;;;;;;18.15;9.88;;;;;;;-1.97;100.00;99308.34;4155258;28;20029;-71
2021/11/11 02:44:38;;;;;;;18.38;10.32;;;;;;;-2.01;100.00;99309.97;4154834;28;20471;-71
2021/11/11 02:46:39;;;;;;;17.50;10.07;;;;;;;-2.00;100.00;99308.88;4157258;28;20045;-71
2021/11/11 02:48:39;;;;;;;18.38;9.85;;;;;;;-1.96;100.00;99306.44;4156124;28;20033;-71
2021/11/11 02:50:40;;;;;;;20.35;10.52;;;;;;;-2.01;100.00;99304.53;4154417;28;20489;-71
2021/11/11 02:52:44;;;;;;;16.05;8.65;;;;;;;-2.06;100.00;99299.16;4155943;28;20034;-71
2021/11/11 02:54:44;;;;;;;19.63;10.50;;;;;;;-2.13;100.00;99304.84;4153437;28;20041;-71
2021/11/11 02:56:44;;;;;;;14.40;9.25;;;;;;;-2.13;100.00;99312.19;4155025;28;20045;-71
2021/11/11 02:58:45;;;;;;;14.18;8.70;;;;;;;-2.19;100.00;99319.50;4154672;28;20265;-71
2021/11/11 03:00:53;;;;;;;16.50;8.10;;;;;;;-2.26;100.00;99313.53;4153587;28;20053;-71
2021/11/11 03:02:54;;;;;;;17.33;9.30;;;;;;;-2.29;100.00;99304.06;4166333;28;20045;-71
2021/11/11 03:04:57;;;;;;;19.38;9.98;;;;;;;-2.30;100.00;99307.88;4159743;28;20044;-71
2021/11/11 03:06:57;;;;;;;18.30;9.90;;;;;;;-2.23;100.00;99299.47;4157923;28;20044;-71
2021/11/11 03:08:57;;;;;;;21.08;10.77;;;;;;;-2.19;100.00;99286.97;4154685;28;20049;-71
2021/11/11 03:10:58;;;;;;;17.75;9.77;;;;;;;-2.13;100.00;99294.00;4155026;28;20045;-71
2021/11/11 03:13:01;;;;;;;18.77;9.65;;;;;;;-2.13;100.00;99298.63;4154421;28;20120;-71
2021/11/11 03:15:03;;;;;;;19.08;9.52;;;;;;;-2.26;100.00;99289.16;4154459;28;20046;-71
2021/11/11 03:17:04;;;;;;;17.13;10.13;;;;;;;-2.26;100.00;99298.09;4159317;28;20045;-71
2021/11/11 03:19:05;;;;;;;17.20;9.63;;;;;;;-2.25;100.00;99296.19;4154342;28;20045;-71
2021/11/11 03:21:05;;;;;;;15.13;8.82;;;;;;;-2.22;100.00;99294.84;4154466;28;20041;-71
2021/11/11 03:23:06;;;;;;;17.33;9.75;;;;;;;-2.21;100.00;99291.03;4154136;28;20494;-71
2021/11/11 03:25:08;;;;;;;15.48;9.30;;;;;;;-2.24;100.00;99289.69;4153313;28;20037;-71
2021/11/11 03:27:10;;;;;;;19.15;9.88;;;;;;;-2.22;100.00;99295.66;4161810;28;20156;-71
2021/11/11 03:29:10;;;;;;;16.55;8.93;;;;;;;-2.20;100.00;99281.81;4159409;28;20052;-71
2021/11/11 03:31:11;;;;;;;20.10;10.38;;;;;;;-2.26;100.00;99295.38;4157038;28;20168;-71
2021/11/11 03:33:11;;;;;;;21.23;9.95;;;;;;;-2.31;100.00;99300.00;4157336;28;20053;-70
2021/11/11 03:35:13;;;;;;;15.38;8.88;;;;;;;-2.36;100.00;99300.00;4160337;28;20496;-70
2021/11/11 03:37:14;;;;;;;13.20;8.82;;;;;;;-2.26;100.00;99297.28;4161113;28;20424;-71
2021/11/11 03:39:14;;;;;;;19.83;10.57;;;;;;;-2.28;100.00;99297.56;4158236;28;20123;-71
2021/11/11 03:41:15;;;;;;;17.20;9.23;;;;;;;-2.26;100.00;99283.72;4157437;28;20056;-70
2021/11/11 03:43:15;;;;;;;15.25;8.98;;;;;;;-2.26;100.00;99278.31;4158704;28;20042;-70
2021/11/11 03:45:17;;;;;;;14.23;9.75;;;;;;;-2.30;100.00;99283.47;4156740;28;20457;-71
2021/11/11 03:47:19;;;;;;;16.52;10.25;;;;;;;-2.36;100.00;99281.84;4157513;28;20037;-71
2021/11/11 03:49:20;;;;;;;16.65;9.55;;;;;;;-2.41;100.00;99289.97;4157887;28;20205;-71
2021/11/11 03:51:21;;;;;;;17.88;8.98;;;;;;;-2.33;100.00;99280.47;4158529;28;20095;-71
2021/11/11 03:53:23;;;;;;;14.77;8.52;;;;;;;-2.29;100.00;99282.38;4157344;28;20236;-71
2021/11/11 03:55:25;;;;;;;16.40;9.73;;;;;;;-2.27;100.00;99273.97;4157517;28;20189;-71
2021/11/11 03:57:26;;;;;;;17.23;9.00;;;;;;;-2.23;100.00;99274.22;4157729;28;20072;-72
2021/11/11 03:59:27;;;;;;;14.63;9.05;;;;;;;-2.20;100.00;99274.50;4157183;28;20079;-72
2021/11/11 04:01:27;;;;;;;14.48;9.13;;;;;;;-2.19;100.00;99272.59;4157415;28;20679;-72
2021/11/11 04:03:29;;;;;;;15.90;8.60;;;;;;;-2.24;100.00;99286.97;4155666;28;20619;-72
2021/11/11 04:05:29;;;;;;;14.57;8.68;;;;;;;-2.35;99.98;99290.78;4157889;28;20292;-72
2021/11/11 04:07:30;;;;;;;14.98;8.73;;;;;;;-2.39;100.00;99298.66;4157191;28;20069;-72
2021/11/11 04:09:30;;;;;;;22.73;9.48;;;;;;;-2.45;100.00;99282.69;4157071;28;20040;-72
2021/11/11 04:11:31;;;;;;;19.60;10.18;;;;;;;-2.48;100.00;99283.22;4159141;28;20297;-72
2021/11/11 04:13:32;;;;;;;25.77;9.23;;;;;;;-2.49;100.00;99285.09;4160597;28;20501;-72
2021/11/11 04:15:32;;;;;;;15.68;9.27;;;;;;;-2.58;100.00;99279.44;4156728;28;20038;-72
2021/11/11 04:17:33;;;;;;;16.20;9.05;;;;;;;-2.56;100.00;99279.19;4158013;28;20774;-72
2021/11/11 04:19:33;;;;;;;12.40;8.38;;;;;;;-2.55;100.00;99288.94;4160562;28;20207;-72
2021/11/11 04:21:34;;;;;;;25.42;8.90;;;;;;;-2.62;100.00;99288.38;4161758;28;20056;-72
2021/11/11 04:23:35;;;;;;;12.68;7.63;;;;;;;-2.72;100.00;99296.53;4157932;28;20041;-71
2021/11/11 04:25:46;;;;;;;15.68;9.77;;;;;;;-2.79;100.00;99294.09;4159437;28;20076;-72
2021/11/11 04:27:53;;;;;;;17.48;9.82;;;;;;;-2.92;100.00;99290.00;4160692;28;20052;-72
2021/11/11 04:30:05;;;;;;;26.42;11.90;;;;;;;-2.94;100.00;99283.25;4157005;28;20045;-72
2021/11/11 04:32:08;;;;;;;22.73;11.75;;;;;;;-2.87;100.00;99290.00;4158363;28;20037;-72
2021/11/11 04:34:13;;;;;;;24.42;13.32;;;;;;;-2.78;100.00;99281.34;4155536;28;20063;-72
2021/11/11 04:38:34;;;;;;;20.67;11.13;;;;;;;-2.76;100.00;99290.00;4159876;28;20045;-72
2021/11/11 04:44:58;;;;;;;17.60;10.30;;;;;;;-2.59;100.00;99274.28;4155933;28;20511;-72
2021/11/11 04:52:03;;;;;;;17.63;10.00;;;;;;;-2.76;100.00;99290.00;4162509;28;20052;-72
2021/11/11 05:05:06;;;;;;;17.58;10.63;;;;;;;-2.78;100.00;99273.22;4156668;28;20041;-72
2021/11/11 05:07:07;;;;;;;18.92;10.93;;;;;;;-2.75;100.00;99276.19;4160179;28;20045;-72
2021/11/11 05:09:08;;;;;;;18.63;11.02;;;;;;;-2.73;100.00;99273.19;4158319;28;20501;-72
2021/11/11 05:11:09;;;;;;;18.60;10.10;;;;;;;-2.77;100.00;99264.00;4160415;28;20496;-72
2021/11/11 05:13:10;;;;;;;14.85;8.77;;;;;;;-2.90;100.00;99257.22;4158263;28;20044;-72
2021/11/11 05:15:10;;;;;;;16.25;9.82;;;;;;;-2.96;100.00;99261.03;4155727;28;20440;-72
2021/11/11 05:17:10;;;;;;;15.68;8.65;;;;;;;-3.04;100.00;99258.88;4159031;28;20061;-73
2021/11/11 05:19:11;;;;;;;21.45;10.85;;;;;;;-3.13;100.00;99266.72;4158733;28;20045;-74
2021/11/11 05:21:11;;;;;;;26.58;14.68;;;;;;;-3.17;100.00;99260.19;4157315;28;20061;-72
2021/11/11 05:23:11;;;;;;;22.35;13.85;;;;;;;-3.18;100.00;99264.81;4158310;28;20111;-72
2021/11/11 05:25:13;;;;;;;22.35;11.57;;;;;;;-3.18;100.00;99264.00;4158950;28;20324;-72
2021/11/11 05:27:15;;;;;;;17.60;11.32;;;;;;;-3.20;100.00;99282.41;4155210;28;20049;-72
2021/11/11 05:29:15;;;;;;;21.90;11.60;;;;;;;-3.26;100.00;99272.63;4159207;28;20041;-72
2021/11/11 05:31:16;;;;;;;21.70;11.18;;;;;;;-3.22;100.00;99284.56;4158493;28;20431;-72
2021/11/11 05:33:16;;;;;;;22.00;11.02;;;;;;;-3.21;100.00;99278.88;4159822;28;20049;-72
2021/11/11 05:35:17;;;;;;;19.10;10.57;;;;;;;-3.12;100.00;99273.75;4157935;28;20125;-72
2021/11/11 05:37:17;;;;;;;23.75;11.90;;;;;;;-3.09;100.00;99277.81;4158506;28;20374;-72
2021/11/11 05:39:17;;;;;;;17.95;10.00;;;;;;;-3.14;100.00;99275.91;4156514;28;20040;-72
2021/11/11 05:41:18;;;;;;;23.15;12.98;;;;;;;-3.17;100.00;99277.25;4157961;28;20114;-72
2021/11/11 05:43:18;;;;;;;23.48;11.57;;;;;;;-3.23;100.00;99272.09;4156517;28;20049;-72
2021/11/11 05:45:19;;;;;;;20.52;11.00;;;;;;;-3.26;100.00;99284.28;4157656;28;20525;-72
2021/11/11 05:47:19;;;;;;;17.75;10.38;;;;;;;-3.25;100.00;99285.91;4157689;28;20080;-72
2021/11/11 05:49:20;;;;;;;19.25;10.10;;;;;;;-3.28;100.00;99299.16;4155436;28;20100;-72
2021/11/11 05:51:20;;;;;;;17.70;11.07;;;;;;;-3.34;100.00;99297.53;4155885;28;20398;-72
2021/11/11 05:53:21;;;;;;;17.33;10.00;;;;;;;-3.38;100.00;99296.44;4154726;28;20395;-72
2021/11/11 05:55:21;;;;;;;22.73;12.07;;;;;;;-3.36;100.00;99292.38;4154888;28;20053;-72
2021/11/11 05:57:22;;;;;;;16.35;11.18;;;;;;;-3.30;100.00;99294.03;4155180;28;20073;-72
2021/11/11 05:59:22;;;;;;;17.27;10.95;;;;;;;-3.25;100.00;99296.72;4156352;28;20118;-72
2021/11/11 06:01:25;;;;;;;15.80;9.38;;;;;;;-3.27;100.00;99298.06;4156289;28;20048;-72
2021/11/11 06:03:25;;;;;;;14.63;10.02;;;;;;;-3.30;100.00;99287.81;4156933;28;20100;-72
2021/11/11 06:05:26;;;;;;;19.95;11.55;;;;;;;-3.34;100.00;99292.09;4156445;28;20041;-72
2021/11/11 06:07:27;;;;;;;17.27;10.20;;;;;;;-3.36;100.00;99294.28;4155570;28;20064;-72
2021/11/11 06:09:27;;;;;;;16.98;10.57;;;;;;;-3.37;100.00;99301.59;4154665;28;20048;-72
2021/11/11 06:11:27;;;;;;;16.50;9.77;;;;;;;-3.36;100.00;99305.09;4155799;28;20410;-72
2021/11/11 06:13:28;;;;;;;15.85;10.02;;;;;;;-3.37;100.00;99296.16;4155276;28;20096;-72
2021/11/11 06:15:28;;;;;;;18.88;10.55;;;;;;;-3.29;100.00;99314.59;4154246;28;20041;-72
2021/11/11 06:17:29;;;;;;;18.77;10.55;;;;;;;-3.24;100.00;99309.16;4154661;28;20045;-72
2021/11/11 06:19:30;;;;;;;15.68;9.60;;;;;;;-3.21;100.00;99314.06;4161434;28;20365;-72
2021/11/11 06:21:30;;;;;;;15.13;8.90;;;;;;;-3.26;100.00;99308.63;4155687;28;20068;-72
2021/11/11 06:23:33;;;;;;;17.52;10.30;;;;;;;-3.24;100.00;99302.94;4155621;28;20314;-72
2021/11/11 06:25:34;;;;;;;15.20;9.73;;;;;;;-3.15;100.00;99312.16;4155495;28;20037;-72
2021/11/11 06:27:34;;;;;;;21.75;11.40;;;;;;;-3.07;100.00;99308.94;4156984;28;20860;-72
2021/11/11 06:29:34;;;;;;;15.95;9.80;;;;;;;-3.01;100.00;99312.47;4153906;28;20531;-72
2021/11/11 06:31:35;;;;;;;15.27;9.68;;;;;;;-3.03;100.00;99317.34;4156222;28;20212;-72
2021/11/11 06:33:36;;;;;;;15.45;9.90;;;;;;;-3.05;100.00;99298.66;4154457;28;20029;-72
2021/11/11 06:35:36;;;;;;;14.43;9.32;;;;;;;-3.07;100.00;99303.50;4154130;28;20216;-72
2021/11/11 06:37:37;;;;;;;15.10;10.32;;;;;;;-3.07;100.00;99308.94;4154636;28;20033;-72
2021/11/11 06:39:38;;;;;;;18.60;11.77;;;;;;;-3.08;100.00;99312.72;4154645;28;20082;-72
2021/11/11 06:41:38;;;;;;;21.90;11.88;;;;;;;-3.09;100.00;99315.72;4155574;28;20052;-72
2021/11/11 06:43:39;;;;;;;18.13;10.43;;;;;;;-3.03;100.00;99322.75;4153466;28;20083;-72
2021/11/11 06:45:42;;;;;;;15.20;9.35;;;;;;;-3.04;100.00;99321.94;4154984;28;20451;-72
2021/11/11 06:47:42;;;;;;;17.85;10.38;;;;;;;-2.98;100.00;99323.59;4154968;28;20400;-72
2021/11/11 06:49:43;;;;;;;19.65;8.90;;;;;;;-2.96;100.00;99323.31;4154482;28;20053;-72
2021/11/11 06:51:44;;;;;;;17.08;9.00;;;;;;;-2.93;100.00;99333.59;4155311;28;20389;-72
2021/11/11 06:53:45;;;;;;;16.00;9.98;;;;;;;-2.90;100.00;99333.88;4154151;28;20034;-72
2021/11/11 06:55:47;;;;;;;20.60;10.40;;;;;;;-2.89;100.00;99329.28;4161311;28;20321;-72
2021/11/11 06:57:47;;;;;;;17.25;10.27;;;;;;;-2.89;100.00;99327.41;4165168;28;20118;-72
2021/11/11 06:59:48;;;;;;;21.38;11.68;;;;;;;-2.98;100.00;99339.00;4155266;28;20105;-72
2021/11/11 07:01:49;;;;;;;17.77;10.60;;;;;;;-3.01;100.00;99337.66;4164392;28;20522;-73
2021/11/11 07:03:49;;;;;;;17.65;10.65;;;;;;;-3.04;100.00;99337.38;4154843;28;20046;-72
2021/11/11 07:05:49;;;;;;;15.82;9.27;;;;;;;-3.08;100.00;99333.56;4159479;28;20041;-72
2021/11/11 07:07:50;;;;;;;19.42;9.75;;;;;;;-3.11;100.00;99330.31;4158992;28;20297;-72
2021/11/11 07:09:50;;;;;;;17.17;10.30;;;;;;;-3.11;100.00;99332.22;4154556;28;20293;-72
2021/11/11 07:11:51;;;;;;;18.05;10.93;;;;;;;-3.08;100.00;99331.69;4155409;28;20430;-72
2021/11/11 07:13:51;;;;;;;18.08;10.88;;;;;;;-3.06;100.00;99336.81;4156288;28;20209;-72
2021/11/11 07:15:52;;;;;;;18.35;9.82;;;;;;;-3.03;100.00;99337.09;4154605;28;20389;-72
2021/11/11 07:17:52;;;;;;;32.75;17.63;;;;;;;-3.01;100.00;99334.94;4154615;28;20044;-72
2021/11/11 07:19:52;;;;;;;34.47;16.90;;;;;;;-2.96;100.00;99344.97;4154615;28;20641;-72
2021/11/11 07:21:54;;;;;;;33.70;16.08;;;;;;;-2.96;100.00;99343.09;4154328;28;20049;-72
2021/11/11 07:23:55;;;;;;;29.27;14.05;;;;;;;-2.92;100.00;99351.47;4153151;28;20481;-72
2021/11/11 07:25:55;;;;;;;25.63;12.80;;;;;;;-2.84;100.00;99348.22;4154295;28;20045;-72
2021/11/11 07:27:56;;;;;;;25.98;11.77;;;;;;;-2.79;100.00;99353.66;4154828;28;20072;-72
2021/11/11 07:29:57;;;;;;;21.35;11.50;;;;;;;-2.72;100.00;99345.28;4154284;28;20385;-72
2021/11/11 07:31:57;;;;;;;21.42;11.13;;;;;;;-2.68;100.00;99347.16;4154633;28;20042;-72
2021/11/11 07:33:59;;;;;;;20.02;10.73;;;;;;;-2.58;100.00;99349.88;4154281;28;20413;-72
2021/11/11 07:36:02;;;;;;;22.13;10.25;;;;;;;-2.51;100.00;99346.91;4158026;28;20144;-72
2021/11/11 07:38:03;;;;;;;18.05;9.55;;;;;;;-2.47;100.00;99345.28;4154458;28;20110;-72
2021/11/11 07:40:06;;;;;;;17.20;9.50;;;;;;;-2.46;100.00;99349.63;4158886;28;20458;-72
2021/11/11 07:42:06;;;;;;;;;;;;;;;-2.39;100.00;99360.19;4154006;28;20040;-72
2021/11/11 07:44:06;;;;;;;20.33;9.32;;;;;;;-2.35;100.00;99353.94;4154186;28;19935;-72
2021/11/11 07:46:07;;;;;;;17.15;9.25;;;;;;;-2.24;100.00;99353.94;4154427;28;20188;-72
2021/11/11 07:48:07;;;;;;;14.38;8.98;;;;;;;-2.15;100.00;99352.28;4154771;28;20425;-71
2021/11/11 07:50:09;;;;;;;17.88;8.88;;;;;;;-2.07;100.00;99351.72;4153847;28;20148;-72
2021/11/11 07:52:11;;;;;;;19.25;9.45;;;;;;;-1.95;100.00;99346.03;4154036;28;20036;-72
2021/11/11 07:54:11;;;;;;;14.02;8.30;;;;;;;-1.91;100.00;99355.22;4154312;28;20916;-72
2021/11/11 07:56:11;;;;;;;14.82;8.35;;;;;;;-1.90;100.00;99354.13;4160266;28;20071;-72
2021/11/11 07:58:12;;;;;;;16.67;8.95;;;;;;;-1.89;100.00;99347.66;4154678;28;20938;-72
2021/11/11 08:00:14;;;;;;;14.40;8.23;;;;;;;-1.85;100.00;99348.72;4154219;28;20072;-72
2021/11/11 08:02:16;;;;;;;20.45;8.38;;;;;;;-1.82;100.00;99348.16;4154409;28;20061;-72
2021/11/11 08:04:16;;;;;;;14.25;8.57;;;;;;;-1.80;100.00;99348.72;4152966;28;20293;-72
2021/11/11 08:06:17;;;;;;;16.17;8.15;;;;;;;-1.75;100.00;99354.09;4154340;28;20036;-72
2021/11/11 08:08:17;;;;;;;15.18;8.32;;;;;;;-1.74;100.00;99353.84;4154882;28;20135;-72
2021/11/11 08:10:20;;;;;;;13.57;7.88;;;;;;;-1.67;100.00;99355.44;4153470;28;20032;-72
2021/11/11 08:12:21;;;;;;;15.98;9.00;;;;;;;-1.64;100.00;99352.19;4154870;28;20062;-72
2021/11/11 08:14:21;;;;;;;14.70;8.77;;;;;;;-1.59;100.00;99355.69;4156288;28;20095;-72
2021/11/11 08:16:22;;;;;;;18.55;9.95;;;;;;;-1.56;100.00;99348.91;4158100;28;20033;-72
2021/11/11 08:18:22;;;;;;;21.20;10.38;;;;;;;-1.43;100.00;99359.16;4156491;28;20128;-73
2021/11/11 08:20:23;;;;;;;21.30;10.32;;;;;;;-1.37;100.00;99360.75;4156616;28;20042;-72
2021/11/11 08:22:25;;;;;;;21.63;10.20;;;;;;;-1.29;100.00;99364.81;4157593;28;20068;-72
2021/11/11 08:24:26;;;;;;;;;;;;;;;-1.25;100.00;99376.72;4158044;28;20547;-72
2021/11/11 08:26:26;;;;;;;17.13;9.25;;;;;;;-1.22;100.00;99370.75;4156156;28;19921;-72
2021/11/11 08:28:27;;;;;;;12.77;8.00;;;;;;;-1.21;100.00;99367.75;4160626;28;20068;-72
2021/11/11 08:30:27;;;;;;;16.08;8.32;;;;;;;-1.18;100.00;99369.88;4165900;28;20072;-72
2021/11/11 08:32:28;;;;;;;13.02;8.57;;;;;;;-1.15;100.00;99361.22;4155882;28;20524;-72
2021/11/11 08:34:29;;;;;;;14.57;8.43;;;;;;;-1.13;100.00;99361.72;4156787;28;20148;-72
2021/11/11 08:36:30;;;;;;;14.25;8.40;;;;;;;-1.07;100.00;99357.09;4161835;28;20136;-72
2021/11/11 08:38:30;;;;;;;13.25;7.88;;;;;;;-1.03;100.00;99355.44;4158909;28;20052;-72
2021/11/11 08:40:31;;;;;;;14.88;8.20;;;;;;;-0.97;100.00;99353.50;4157641;28;20033;-72
2021/11/11 08:42:32;;;;;;;12.98;8.32;;;;;;;-0.90;100.00;99357.53;4162735;28;20336;-72
2021/11/11 08:44:32;;;;;;;14.40;9.23;;;;;;;-0.83;100.00;99361.81;4157442;28;20088;-73
2021/11/11 08:46:32;;;;;;;15.38;9.68;;;;;;;-0.76;100.00;99360.41;4155267;28;20038;-72
2021/11/11 08:48:33;;;;;;;15.45;8.85;;;;;;;-0.73;100.00;99362.59;4157363;28;20075;-71
2021/11/11 08:50:36;;;;;;;19.15;10.45;;;;;;;-0.68;100.00;99361.72;4156867;28;20493;-72
2021/11/11 08:52:43;;;;;;;20.33;10.50;;;;;;;-0.57;100.00;99352.41;4156054;28;20065;-72
2021/11/11 08:54:43;;;;;;;17.48;9.27;;;;;;;-0.43;100.00;99358.81;4155566;28;20037;-72
2021/11/11 08:56:48;;;;;;;21.08;9.90;;;;;;;-0.35;100.00;99370.97;4156559;28;20056;-72
2021/11/11 08:58:48;;;;;;;28.05;13.82;;;;;;;-0.28;100.00;99366.03;4162046;28;20037;-72
2021/11/11 09:00:52;;;;;;;25.05;10.73;;;;;;;-0.23;100.00;99365.19;4156607;28;20079;-72
2021/11/11 09:02:54;;;;;;;18.42;9.35;;;;;;;-0.22;100.00;99361.38;4158382;28;20468;-72
2021/11/11 09:04:55;;;;;;;23.15;10.15;;;;;;;-0.15;100.00;99368.09;4158999;28;20052;-72
2021/11/11 09:06:58;;;;;;;23.02;11.30;;;;;;;-0.10;100.00;99370.75;4156738;28;20377;-72
2021/11/11 09:08:58;;;;;;;20.75;11.82;;;;;;;-0.07;100.00;99372.13;4160426;28;20065;-72
2021/11/11 09:10:59;;;;;;;21.85;12.20;;;;;;;-0.03;100.00;99373.97;4157739;28;20051;-72
2021/11/11 09:12:59;;;;;;;20.17;11.55;;;;;;;0.00;100.00;99369.88;4160943;28;20524;-71
2021/11/11 09:15:00;;;;;;;19.17;12.10;;;;;;;0.05;100.00;99366.28;4155653;28;20107;-71
2021/11/11 09:17:01;;;;;;;19.38;11.38;;;;;;;0.11;100.00;99370.59;4162018;28;20053;-71
2021/11/11 09:19:03;;;;;;;18.10;11.40;;;;;;;0.10;100.00;99368.97;4155451;28;20065;-71
2021/11/11 09:21:06;;;;;;;18.45;11.32;;;;;;;0.17;100.00;99366.72;4156813;28;20496;-71
2021/11/11 09:23:07;;;;;;;18.48;10.15;;;;;;;0.22;100.00;99375.63;4158690;28;20041;-71
2021/11/11 09:25:09;;;;;;;20.48;11.27;;;;;;;0.28;100.00;99365.50;4156542;28;20520;-71
2021/11/11 09:27:10;;;;;;;17.52;12.02;;;;;;;0.30;100.00;99370.66;4159798;28;20041;-71
2021/11/11 09:29:10;;;;;;;19.40;10.93;;;;;;;0.27;100.00;99377.50;4156950;28;20029;-71
2021/11/11 09:31:11;;;;;;;20.90;11.13;;;;;;;0.25;100.00;99380.50;4156234;28;20040;-71
2021/11/11 09:33:12;;;;;;;16.80;10.63;;;;;;;0.27;100.00;99391.09;4154888;28;20397;-71
2021/11/11 09:35:13;;;;;;;24.48;11.57;;;;;;;0.30;100.00;99389.72;4155899;28;20049;-71
2021/11/11 09:37:13;;;;;;;15.93;10.70;;;;;;;0.30;100.00;99387.78;4160634;28;20419;-71